sensor_id;sensor_type;location;lat;lon;timestamp;P1;durP1;ratioP1;P2;durP2;ratioP2
6015;SDS011;3036;49.960;8.454;2023-06-14T00:01:45;3.08;;;2.90;;
6015;SDS011;3036;49.960;8.454;2023-06-14T00:04:12;3.08;;;2.88;;
6015;SDS011;3036;49.960;8.454;2023-06-14T00:06:41;2.80;;;2.70;;
6015;SDS011;3036;49.960;8.454;2023-06-14T00:09:10;3.17;;;2.97;;
6015;SDS011;3036;49.960;8.454;2023-06-14T00:11:37;2.70;;;2.60;;
6015;SDS011;3036;49.960;8.454;2023-06-14T00:14:04;2.58;;;2.47;;
6015;SDS011;3036;49.960;8.454;2023-06-14T00:16:31;3.13;;;2.83;;
6015;SDS011;3036;49.960;8.454;2023-06-14T00:19:01;2.55;;;2.45;;
6015;SDS011;3036;49.960;8.454;2023-06-14T00:21:29;3.47;;;2.70;;
6015;SDS011;3036;49.960;8.454;2023-06-14T00:23:57;2.92;;;2.83;;
6015;SDS011;3036;49.960;8.454;2023-06-14T00:26:24;3.13;;;2.92;;
6015;SDS011;3036;49.960;8.454;2023-06-14T00:28:51;2.95;;;2.75;;
6015;SDS011;3036;49.960;8.454;2023-06-14T00:31:18;3.00;;;2.88;;
6015;SDS011;3036;49.960;8.454;2023-06-14T00:33:45;3.65;;;3.42;;
6015;SDS011;3036;49.960;8.454;2023-06-14T00:36:14;2.50;;;2.35;;
6015;SDS011;3036;49.960;8.454;2023-06-14T00:38:41;3.00;;;2.90;;
6015;SDS011;3036;49.960;8.454;2023-06-14T00:41:08;2.83;;;2.65;;
6015;SDS011;3036;49.960;8.454;2023-06-14T00:43:35;3.53;;;3.22;;
6015;SDS011;3036;49.960;8.454;2023-06-14T00:46:02;3.00;;;2.80;;
6015;SDS011;3036;49.960;8.454;2023-06-14T00:48:29;3.22;;;2.90;;
6015;SDS011;3036;49.960;8.454;2023-06-14T00:50:56;3.08;;;2.60;;
6015;SDS011;3036;49.960;8.454;2023-06-14T00:53:25;2.67;;;2.58;;
6015;SDS011;3036;49.960;8.454;2023-06-14T00:55:52;2.70;;;2.60;;
6015;SDS011;3036;49.960;8.454;2023-06-14T00:58:19;2.45;;;2.35;;
6015;SDS011;3036;49.960;8.454;2023-06-14T01:00:48;3.08;;;2.88;;
6015;SDS011;3036;49.960;8.454;2023-06-14T01:03:16;3.58;;;2.53;;
6015;SDS011;3036;49.960;8.454;2023-06-14T01:05:47;2.90;;;2.70;;
6015;SDS011;3036;49.960;8.454;2023-06-14T01:08:16;3.08;;;2.88;;
6015;SDS011;3036;49.960;8.454;2023-06-14T01:10:50;2.83;;;2.63;;
6015;SDS011;3036;49.960;8.454;2023-06-14T01:13:19;2.65;;;2.50;;
6015;SDS011;3036;49.960;8.454;2023-06-14T01:15:47;2.38;;;2.28;;
6015;SDS011;3036;49.960;8.454;2023-06-14T01:18:14;2.88;;;2.78;;
6015;SDS011;3036;49.960;8.454;2023-06-14T01:20:43;2.78;;;2.60;;
6015;SDS011;3036;49.960;8.454;2023-06-14T01:23:15;2.92;;;2.70;;
6015;SDS011;3036;49.960;8.454;2023-06-14T01:25:42;3.75;;;2.53;;
6015;SDS011;3036;49.960;8.454;2023-06-14T01:28:10;2.17;;;2.08;;
6015;SDS011;3036;49.960;8.454;2023-06-14T01:30:38;2.88;;;2.67;;
6015;SDS011;3036;49.960;8.454;2023-06-14T01:33:10;3.13;;;2.67;;
6015;SDS011;3036;49.960;8.454;2023-06-14T01:35:37;2.17;;;2.08;;
6015;SDS011;3036;49.960;8.454;2023-06-14T01:38:04;3.08;;;2.88;;
6015;SDS011;3036;49.960;8.454;2023-06-14T01:40:33;2.72;;;2.63;;
6015;SDS011;3036;49.960;8.454;2023-06-14T01:43:01;2.95;;;2.75;;
6015;SDS011;3036;49.960;8.454;2023-06-14T01:45:29;2.47;;;2.38;;
6015;SDS011;3036;49.960;8.454;2023-06-14T01:47:56;3.30;;;2.65;;
6015;SDS011;3036;49.960;8.454;2023-06-14T01:50:23;2.35;;;2.25;;
6015;SDS011;3036;49.960;8.454;2023-06-14T01:52:50;2.63;;;2.42;;
6015;SDS011;3036;49.960;8.454;2023-06-14T01:55:17;3.22;;;2.35;;
6015;SDS011;3036;49.960;8.454;2023-06-14T01:57:48;2.70;;;2.50;;
6015;SDS011;3036;49.960;8.454;2023-06-14T02:00:15;3.00;;;2.80;;
6015;SDS011;3036;49.960;8.454;2023-06-14T02:02:43;2.65;;;2.55;;
6015;SDS011;3036;49.960;8.454;2023-06-14T02:05:10;2.63;;;2.50;;
6015;SDS011;3036;49.960;8.454;2023-06-14T02:07:37;2.55;;;2.45;;
6015;SDS011;3036;49.960;8.454;2023-06-14T02:10:05;2.83;;;2.67;;
6015;SDS011;3036;49.960;8.454;2023-06-14T02:12:32;2.88;;;2.60;;
6015;SDS011;3036;49.960;8.454;2023-06-14T02:15:00;2.55;;;2.45;;
6015;SDS011;3036;49.960;8.454;2023-06-14T02:17:28;2.55;;;2.42;;
6015;SDS011;3036;49.960;8.454;2023-06-14T02:19:55;2.50;;;2.40;;
6015;SDS011;3036;49.960;8.454;2023-06-14T02:22:23;2.38;;;2.28;;
6015;SDS011;3036;49.960;8.454;2023-06-14T02:24:50;3.92;;;2.28;;
6015;SDS011;3036;49.960;8.454;2023-06-14T02:27:17;2.60;;;2.38;;
6015;SDS011;3036;49.960;8.454;2023-06-14T02:29:45;2.60;;;2.40;;
6015;SDS011;3036;49.960;8.454;2023-06-14T02:32:13;2.35;;;2.25;;
6015;SDS011;3036;49.960;8.454;2023-06-14T02:34:40;3.10;;;2.70;;
6015;SDS011;3036;49.960;8.454;2023-06-14T02:37:07;2.70;;;2.60;;
6015;SDS011;3036;49.960;8.454;2023-06-14T02:39:34;2.60;;;2.40;;
6015;SDS011;3036;49.960;8.454;2023-06-14T02:42:01;2.33;;;2.22;;
6015;SDS011;3036;49.960;8.454;2023-06-14T02:44:28;2.10;;;2.00;;
6015;SDS011;3036;49.960;8.454;2023-06-14T02:46:57;3.50;;;2.22;;
6015;SDS011;3036;49.960;8.454;2023-06-14T02:49:27;2.47;;;2.38;;
6015;SDS011;3036;49.960;8.454;2023-06-14T02:51:54;2.25;;;2.15;;
6015;SDS011;3036;49.960;8.454;2023-06-14T02:54:21;2.40;;;2.08;;
6015;SDS011;3036;49.960;8.454;2023-06-14T02:56:48;2.72;;;2.53;;
6015;SDS011;3036;49.960;8.454;2023-06-14T02:59:16;2.70;;;2.50;;
6015;SDS011;3036;49.960;8.454;2023-06-14T03:01:44;1.73;;;1.73;;
6015;SDS011;3036;49.960;8.454;2023-06-14T03:04:11;2.47;;;2.38;;
6015;SDS011;3036;49.960;8.454;2023-06-14T03:06:40;2.80;;;2.33;;
6015;SDS011;3036;49.960;8.454;2023-06-14T03:09:09;2.15;;;2.00;;
6015;SDS011;3036;49.960;8.454;2023-06-14T03:11:36;2.35;;;2.25;;
6015;SDS011;3036;49.960;8.454;2023-06-14T03:14:03;2.10;;;2.03;;
6015;SDS011;3036;49.960;8.454;2023-06-14T03:16:32;2.38;;;2.35;;
6015;SDS011;3036;49.960;8.454;2023-06-14T03:18:59;3.33;;;2.38;;
6015;SDS011;3036;49.960;8.454;2023-06-14T03:21:26;3.65;;;2.28;;
6015;SDS011;3036;49.960;8.454;2023-06-14T03:23:54;2.28;;;2.17;;
6015;SDS011;3036;49.960;8.454;2023-06-14T03:26:21;2.13;;;2.03;;
6015;SDS011;3036;49.960;8.454;2023-06-14T03:28:48;2.22;;;2.00;;
6015;SDS011;3036;49.960;8.454;2023-06-14T03:31:15;2.40;;;2.30;;
6015;SDS011;3036;49.960;8.454;2023-06-14T03:33:44;1.85;;;1.77;;
6015;SDS011;3036;49.960;8.454;2023-06-14T03:36:11;2.45;;;2.30;;
6015;SDS011;3036;49.960;8.454;2023-06-14T03:38:38;2.20;;;2.10;;
6015;SDS011;3036;49.960;8.454;2023-06-14T03:41:06;2.15;;;1.95;;
6015;SDS011;3036;49.960;8.454;2023-06-14T03:43:33;4.07;;;2.28;;
6015;SDS011;3036;49.960;8.454;2023-06-14T03:46:00;3.15;;;2.00;;
6015;SDS011;3036;49.960;8.454;2023-06-14T03:48:28;2.15;;;1.85;;
6015;SDS011;3036;49.960;8.454;2023-06-14T03:50:55;2.03;;;1.90;;
6015;SDS011;3036;49.960;8.454;2023-06-14T03:53:23;1.80;;;1.70;;
6015;SDS011;3036;49.960;8.454;2023-06-14T03:55:52;2.95;;;2.15;;
6015;SDS011;3036;49.960;8.454;2023-06-14T03:58:21;1.88;;;1.80;;
6015;SDS011;3036;49.960;8.454;2023-06-14T04:00:48;2.40;;;2.20;;
6015;SDS011;3036;49.960;8.454;2023-06-14T04:03:15;2.13;;;2.03;;
6015;SDS011;3036;49.960;8.454;2023-06-14T04:05:42;2.17;;;2.08;;
6015;SDS011;3036;49.960;8.454;2023-06-14T04:08:09;2.08;;;1.98;;
6015;SDS011;3036;49.960;8.454;2023-06-14T04:10:39;2.38;;;2.08;;
6015;SDS011;3036;49.960;8.454;2023-06-14T04:13:06;1.83;;;1.70;;
6015;SDS011;3036;49.960;8.454;2023-06-14T04:15:38;2.72;;;2.40;;
6015;SDS011;3036;49.960;8.454;2023-06-14T04:18:13;3.55;;;2.00;;
6015;SDS011;3036;49.960;8.454;2023-06-14T04:20:40;1.85;;;1.75;;
6015;SDS011;3036;49.960;8.454;2023-06-14T04:23:13;2.25;;;2.15;;
6015;SDS011;3036;49.960;8.454;2023-06-14T04:25:40;1.80;;;1.70;;
6015;SDS011;3036;49.960;8.454;2023-06-14T04:28:10;1.70;;;1.52;;
6015;SDS011;3036;49.960;8.454;2023-06-14T04:30:38;2.20;;;2.10;;
6015;SDS011;3036;49.960;8.454;2023-06-14T04:33:05;2.22;;;2.13;;
6015;SDS011;3036;49.960;8.454;2023-06-14T04:35:32;2.35;;;2.20;;
6015;SDS011;3036;49.960;8.454;2023-06-14T04:38:01;3.15;;;1.98;;
6015;SDS011;3036;49.960;8.454;2023-06-14T04:40:29;2.03;;;1.90;;
6015;SDS011;3036;49.960;8.454;2023-06-14T04:42:56;2.17;;;2.10;;
6015;SDS011;3036;49.960;8.454;2023-06-14T04:45:24;2.13;;;1.95;;
6015;SDS011;3036;49.960;8.454;2023-06-14T04:47:59;2.10;;;2.00;;
6015;SDS011;3036;49.960;8.454;2023-06-14T04:50:26;2.38;;;2.17;;
6015;SDS011;3036;49.960;8.454;2023-06-14T04:52:54;2.20;;;2.03;;
6015;SDS011;3036;49.960;8.454;2023-06-14T04:55:21;2.28;;;2.17;;
6015;SDS011;3036;49.960;8.454;2023-06-14T04:58:00;1.98;;;1.90;;
6015;SDS011;3036;49.960;8.454;2023-06-14T05:00:27;2.40;;;2.20;;
6015;SDS011;3036;49.960;8.454;2023-06-14T05:02:55;2.00;;;1.80;;
6015;SDS011;3036;49.960;8.454;2023-06-14T05:05:24;1.90;;;1.80;;
6015;SDS011;3036;49.960;8.454;2023-06-14T05:07:52;1.65;;;1.65;;
6015;SDS011;3036;49.960;8.454;2023-06-14T05:10:19;2.17;;;2.08;;
6015;SDS011;3036;49.960;8.454;2023-06-14T05:12:46;1.88;;;1.77;;
6015;SDS011;3036;49.960;8.454;2023-06-14T05:15:14;3.15;;;2.08;;
6015;SDS011;3036;49.960;8.454;2023-06-14T05:17:41;10.50;;;1.92;;
6015;SDS011;3036;49.960;8.454;2023-06-14T05:20:08;1.30;;;1.30;;
6015;SDS011;3036;49.960;8.454;2023-06-14T05:22:37;2.08;;;1.52;;
6015;SDS011;3036;49.960;8.454;2023-06-14T05:25:04;2.17;;;1.98;;
6015;SDS011;3036;49.960;8.454;2023-06-14T05:27:31;2.20;;;2.10;;
6015;SDS011;3036;49.960;8.454;2023-06-14T05:30:00;9.13;;;5.97;;
6015;SDS011;3036;49.960;8.454;2023-06-14T05:32:28;1.83;;;1.63;;
6015;SDS011;3036;49.960;8.454;2023-06-14T05:34:56;2.00;;;1.90;;
6015;SDS011;3036;49.960;8.454;2023-06-14T05:37:23;2.05;;;1.95;;
6015;SDS011;3036;49.960;8.454;2023-06-14T05:39:52;1.77;;;1.67;;
6015;SDS011;3036;49.960;8.454;2023-06-14T05:42:21;1.65;;;1.65;;
6015;SDS011;3036;49.960;8.454;2023-06-14T05:44:48;2.25;;;2.15;;
6015;SDS011;3036;49.960;8.454;2023-06-14T05:47:15;1.58;;;1.48;;
6015;SDS011;3036;49.960;8.454;2023-06-14T05:49:42;1.90;;;1.77;;
6015;SDS011;3036;49.960;8.454;2023-06-14T05:52:10;2.17;;;2.08;;
6015;SDS011;3036;49.960;8.454;2023-06-14T05:54:38;2.13;;;2.00;;
6015;SDS011;3036;49.960;8.454;2023-06-14T05:57:07;1.83;;;1.83;;
6015;SDS011;3036;49.960;8.454;2023-06-14T05:59:35;3.13;;;2.00;;
6015;SDS011;3036;49.960;8.454;2023-06-14T06:02:02;2.00;;;1.90;;
6015;SDS011;3036;49.960;8.454;2023-06-14T06:04:30;3.72;;;1.98;;
6015;SDS011;3036;49.960;8.454;2023-06-14T06:06:57;1.83;;;1.77;;
6015;SDS011;3036;49.960;8.454;2023-06-14T06:09:24;3.88;;;1.67;;
6015;SDS011;3036;49.960;8.454;2023-06-14T06:11:51;1.63;;;1.63;;
6015;SDS011;3036;49.960;8.454;2023-06-14T06:14:23;2.67;;;2.47;;
6015;SDS011;3036;49.960;8.454;2023-06-14T06:16:50;1.48;;;1.48;;
6015;SDS011;3036;49.960;8.454;2023-06-14T06:19:18;1.88;;;1.77;;
6015;SDS011;3036;49.960;8.454;2023-06-14T06:21:45;4.10;;;2.25;;
6015;SDS011;3036;49.960;8.454;2023-06-14T06:24:12;2.30;;;2.10;;
6015;SDS011;3036;49.960;8.454;2023-06-14T06:26:40;1.88;;;1.88;;
6015;SDS011;3036;49.960;8.454;2023-06-14T06:29:07;1.95;;;1.85;;
6015;SDS011;3036;49.960;8.454;2023-06-14T06:31:35;2.08;;;1.98;;
6015;SDS011;3036;49.960;8.454;2023-06-14T06:34:02;2.08;;;1.83;;
6015;SDS011;3036;49.960;8.454;2023-06-14T06:36:29;1.52;;;1.52;;
6015;SDS011;3036;49.960;8.454;2023-06-14T06:38:56;2.67;;;1.88;;
6015;SDS011;3036;49.960;8.454;2023-06-14T06:41:23;5.95;;;2.00;;
6015;SDS011;3036;49.960;8.454;2023-06-14T06:43:51;1.90;;;1.80;;
6015;SDS011;3036;49.960;8.454;2023-06-14T06:46:18;4.75;;;2.38;;
6015;SDS011;3036;49.960;8.454;2023-06-14T06:48:47;1.85;;;1.75;;
6015;SDS011;3036;49.960;8.454;2023-06-14T06:51:14;2.03;;;1.92;;
6015;SDS011;3036;49.960;8.454;2023-06-14T06:53:41;4.00;;;2.35;;
6015;SDS011;3036;49.960;8.454;2023-06-14T06:56:10;2.08;;;1.80;;
6015;SDS011;3036;49.960;8.454;2023-06-14T06:58:37;2.40;;;2.03;;
6015;SDS011;3036;49.960;8.454;2023-06-14T07:01:04;1.95;;;1.85;;
6015;SDS011;3036;49.960;8.454;2023-06-14T07:03:31;2.05;;;1.80;;
6015;SDS011;3036;49.960;8.454;2023-06-14T07:05:59;2.13;;;2.00;;
6015;SDS011;3036;49.960;8.454;2023-06-14T07:08:26;1.95;;;1.90;;
6015;SDS011;3036;49.960;8.454;2023-06-14T07:10:54;1.83;;;1.83;;
6015;SDS011;3036;49.960;8.454;2023-06-14T07:13:21;1.92;;;1.77;;
6015;SDS011;3036;49.960;8.454;2023-06-14T07:15:48;2.25;;;1.65;;
6015;SDS011;3036;49.960;8.454;2023-06-14T07:18:18;4.35;;;1.95;;
6015;SDS011;3036;49.960;8.454;2023-06-14T07:20:45;3.22;;;1.95;;
6015;SDS011;3036;49.960;8.454;2023-06-14T07:23:14;2.13;;;1.60;;
6015;SDS011;3036;49.960;8.454;2023-06-14T07:25:41;2.25;;;1.73;;
6015;SDS011;3036;49.960;8.454;2023-06-14T07:28:08;1.58;;;1.48;;
6015;SDS011;3036;49.960;8.454;2023-06-14T07:30:35;1.70;;;1.60;;
6015;SDS011;3036;49.960;8.454;2023-06-14T07:33:02;2.25;;;1.80;;
6015;SDS011;3036;49.960;8.454;2023-06-14T07:35:29;1.80;;;1.77;;
6015;SDS011;3036;49.960;8.454;2023-06-14T07:37:56;1.63;;;1.63;;
6015;SDS011;3036;49.960;8.454;2023-06-14T07:40:25;1.83;;;1.80;;
6015;SDS011;3036;49.960;8.454;2023-06-14T07:42:52;1.60;;;1.50;;
6015;SDS011;3036;49.960;8.454;2023-06-14T07:45:20;1.38;;;1.38;;
6015;SDS011;3036;49.960;8.454;2023-06-14T07:47:47;1.60;;;1.50;;
6015;SDS011;3036;49.960;8.454;2023-06-14T07:50:15;1.65;;;1.50;;
6015;SDS011;3036;49.960;8.454;2023-06-14T07:52:42;1.60;;;1.50;;
6015;SDS011;3036;49.960;8.454;2023-06-14T07:55:09;1.25;;;1.23;;
6015;SDS011;3036;49.960;8.454;2023-06-14T07:57:37;1.50;;;1.30;;
6015;SDS011;3036;49.960;8.454;2023-06-14T08:00:04;1.85;;;1.73;;
6015;SDS011;3036;49.960;8.454;2023-06-14T08:02:32;1.42;;;1.42;;
6015;SDS011;3036;49.960;8.454;2023-06-14T08:04:59;1.80;;;1.70;;
6015;SDS011;3036;49.960;8.454;2023-06-14T08:07:26;1.13;;;1.05;;
6015;SDS011;3036;49.960;8.454;2023-06-14T08:09:53;1.50;;;1.50;;
6015;SDS011;3036;49.960;8.454;2023-06-14T08:12:21;1.40;;;1.40;;
6015;SDS011;3036;49.960;8.454;2023-06-14T08:14:49;1.20;;;1.17;;
6015;SDS011;3036;49.960;8.454;2023-06-14T08:17:16;1.02;;;1.02;;
6015;SDS011;3036;49.960;8.454;2023-06-14T08:19:43;1.00;;;1.00;;
6015;SDS011;3036;49.960;8.454;2023-06-14T08:22:10;1.10;;;1.00;;
6015;SDS011;3036;49.960;8.454;2023-06-14T08:24:37;0.85;;;0.85;;
6015;SDS011;3036;49.960;8.454;2023-06-14T08:27:05;0.95;;;0.95;;
6015;SDS011;3036;49.960;8.454;2023-06-14T08:29:32;0.93;;;0.93;;
6015;SDS011;3036;49.960;8.454;2023-06-14T08:32:01;0.60;;;0.60;;
6015;SDS011;3036;49.960;8.454;2023-06-14T08:34:28;0.98;;;0.98;;
6015;SDS011;3036;49.960;8.454;2023-06-14T08:36:55;0.55;;;0.55;;
6015;SDS011;3036;49.960;8.454;2023-06-14T08:39:22;0.73;;;0.73;;
6015;SDS011;3036;49.960;8.454;2023-06-14T08:41:49;0.90;;;0.90;;
6015;SDS011;3036;49.960;8.454;2023-06-14T08:44:16;0.70;;;0.70;;
6015;SDS011;3036;49.960;8.454;2023-06-14T08:46:44;0.60;;;0.57;;
6015;SDS011;3036;49.960;8.454;2023-06-14T08:49:12;1.10;;;1.00;;
6015;SDS011;3036;49.960;8.454;2023-06-14T08:51:39;0.90;;;0.90;;
6015;SDS011;3036;49.960;8.454;2023-06-14T08:54:06;3.83;;;0.88;;
6015;SDS011;3036;49.960;8.454;2023-06-14T08:56:34;0.88;;;0.80;;
6015;SDS011;3036;49.960;8.454;2023-06-14T08:59:01;1.52;;;1.23;;
6015;SDS011;3036;49.960;8.454;2023-06-14T09:01:29;0.95;;;0.95;;
6015;SDS011;3036;49.960;8.454;2023-06-14T09:03:56;0.90;;;0.90;;
6015;SDS011;3036;49.960;8.454;2023-06-14T09:06:25;0.90;;;0.90;;
6015;SDS011;3036;49.960;8.454;2023-06-14T09:08:53;0.80;;;0.80;;
6015;SDS011;3036;49.960;8.454;2023-06-14T09:11:20;0.93;;;0.93;;
6015;SDS011;3036;49.960;8.454;2023-06-14T09:13:48;1.67;;;0.98;;
6015;SDS011;3036;49.960;8.454;2023-06-14T09:16:16;1.48;;;1.10;;
6015;SDS011;3036;49.960;8.454;2023-06-14T09:18:43;1.05;;;1.05;;
6015;SDS011;3036;49.960;8.454;2023-06-14T09:21:13;0.80;;;0.80;;
6015;SDS011;3036;49.960;8.454;2023-06-14T09:23:42;0.93;;;0.93;;
6015;SDS011;3036;49.960;8.454;2023-06-14T09:26:10;0.60;;;0.60;;
6015;SDS011;3036;49.960;8.454;2023-06-14T09:28:40;0.68;;;0.68;;
6015;SDS011;3036;49.960;8.454;2023-06-14T09:31:08;0.90;;;0.90;;
6015;SDS011;3036;49.960;8.454;2023-06-14T09:33:36;1.10;;;1.05;;
6015;SDS011;3036;49.960;8.454;2023-06-14T09:36:03;0.80;;;0.80;;
6015;SDS011;3036;49.960;8.454;2023-06-14T09:38:30;0.95;;;0.95;;
6015;SDS011;3036;49.960;8.454;2023-06-14T09:40:59;0.98;;;0.98;;
6015;SDS011;3036;49.960;8.454;2023-06-14T09:43:26;0.80;;;0.80;;
6015;SDS011;3036;49.960;8.454;2023-06-14T09:45:53;0.77;;;0.77;;
6015;SDS011;3036;49.960;8.454;2023-06-14T09:48:21;0.75;;;0.75;;
6015;SDS011;3036;49.960;8.454;2023-06-14T09:50:49;0.80;;;0.80;;
6015;SDS011;3036;49.960;8.454;2023-06-14T09:53:17;1.00;;;1.00;;
6015;SDS011;3036;49.960;8.454;2023-06-14T09:55:49;0.95;;;0.95;;
6015;SDS011;3036;49.960;8.454;2023-06-14T09:58:18;0.85;;;0.85;;
6015;SDS011;3036;49.960;8.454;2023-06-14T10:00:47;0.80;;;0.80;;
6015;SDS011;3036;49.960;8.454;2023-06-14T10:03:16;0.82;;;0.82;;
6015;SDS011;3036;49.960;8.454;2023-06-14T10:05:45;0.88;;;0.88;;
6015;SDS011;3036;49.960;8.454;2023-06-14T10:08:14;0.75;;;0.75;;
6015;SDS011;3036;49.960;8.454;2023-06-14T10:10:42;0.90;;;0.73;;
6015;SDS011;3036;49.960;8.454;2023-06-14T10:13:09;1.23;;;0.88;;
6015;SDS011;3036;49.960;8.454;2023-06-14T10:15:41;0.43;;;0.43;;
6015;SDS011;3036;49.960;8.454;2023-06-14T10:18:10;0.98;;;0.88;;
6015;SDS011;3036;49.960;8.454;2023-06-14T10:20:48;1.13;;;0.90;;
6015;SDS011;3036;49.960;8.454;2023-06-14T10:23:17;0.85;;;0.85;;
6015;SDS011;3036;49.960;8.454;2023-06-14T10:25:45;0.85;;;0.85;;
6015;SDS011;3036;49.960;8.454;2023-06-14T10:28:16;0.90;;;0.90;;
6015;SDS011;3036;49.960;8.454;2023-06-14T10:31:04;1.63;;;0.85;;
6015;SDS011;3036;49.960;8.454;2023-06-14T10:33:31;0.80;;;0.80;;
6015;SDS011;3036;49.960;8.454;2023-06-14T10:38:40;0.90;;;0.90;;
6015;SDS011;3036;49.960;8.454;2023-06-14T10:41:08;0.75;;;0.75;;
6015;SDS011;3036;49.960;8.454;2023-06-14T10:43:36;0.60;;;0.60;;
6015;SDS011;3036;49.960;8.454;2023-06-14T10:46:17;0.52;;;0.52;;
6015;SDS011;3036;49.960;8.454;2023-06-14T10:48:48;1.35;;;0.63;;
6015;SDS011;3036;49.960;8.454;2023-06-14T10:51:15;0.77;;;0.77;;
6015;SDS011;3036;49.960;8.454;2023-06-14T10:53:45;1.15;;;1.00;;
6015;SDS011;3036;49.960;8.454;2023-06-14T10:56:22;0.98;;;0.98;;
6015;SDS011;3036;49.960;8.454;2023-06-14T10:58:51;0.80;;;0.80;;
6015;SDS011;3036;49.960;8.454;2023-06-14T11:01:20;0.80;;;0.80;;
6015;SDS011;3036;49.960;8.454;2023-06-14T11:03:50;1.20;;;1.10;;
6015;SDS011;3036;49.960;8.454;2023-06-14T11:06:20;1.00;;;1.00;;
6015;SDS011;3036;49.960;8.454;2023-06-14T11:11:44;0.75;;;0.75;;
6015;SDS011;3036;49.960;8.454;2023-06-14T11:14:12;1.13;;;1.13;;
6015;SDS011;3036;49.960;8.454;2023-06-14T11:16:41;0.90;;;0.90;;
6015;SDS011;3036;49.960;8.454;2023-06-14T11:19:08;0.98;;;0.98;;
6015;SDS011;3036;49.960;8.454;2023-06-14T11:21:39;1.00;;;1.00;;
6015;SDS011;3036;49.960;8.454;2023-06-14T11:24:09;1.08;;;0.75;;
6015;SDS011;3036;49.960;8.454;2023-06-14T11:26:37;1.02;;;0.95;;
6015;SDS011;3036;49.960;8.454;2023-06-14T11:29:04;0.90;;;0.90;;
6015;SDS011;3036;49.960;8.454;2023-06-14T11:31:31;1.00;;;1.00;;
6015;SDS011;3036;49.960;8.454;2023-06-14T11:33:59;1.13;;;1.13;;
6015;SDS011;3036;49.960;8.454;2023-06-14T11:36:27;1.02;;;1.02;;
6015;SDS011;3036;49.960;8.454;2023-06-14T11:38:57;1.20;;;1.20;;
6015;SDS011;3036;49.960;8.454;2023-06-14T11:41:25;1.45;;;1.42;;
6015;SDS011;3036;49.960;8.454;2023-06-14T11:43:52;0.93;;;0.93;;
6015;SDS011;3036;49.960;8.454;2023-06-14T11:46:20;1.20;;;1.20;;
6015;SDS011;3036;49.960;8.454;2023-06-14T11:48:49;1.00;;;1.00;;
6015;SDS011;3036;49.960;8.454;2023-06-14T11:51:19;1.10;;;1.10;;
6015;SDS011;3036;49.960;8.454;2023-06-14T11:53:46;1.05;;;1.05;;
6015;SDS011;3036;49.960;8.454;2023-06-14T11:56:14;1.10;;;1.10;;
6015;SDS011;3036;49.960;8.454;2023-06-14T11:58:42;1.10;;;1.10;;
6015;SDS011;3036;49.960;8.454;2023-06-14T12:01:09;1.02;;;1.02;;
6015;SDS011;3036;49.960;8.454;2023-06-14T12:03:37;1.13;;;1.13;;
6015;SDS011;3036;49.960;8.454;2023-06-14T12:06:13;0.85;;;0.85;;
6015;SDS011;3036;49.960;8.454;2023-06-14T12:08:42;0.90;;;0.90;;
6015;SDS011;3036;49.960;8.454;2023-06-14T12:11:14;0.75;;;0.75;;
6015;SDS011;3036;49.960;8.454;2023-06-14T12:13:42;1.10;;;1.10;;
6015;SDS011;3036;49.960;8.454;2023-06-14T12:16:09;1.17;;;1.17;;
6015;SDS011;3036;49.960;8.454;2023-06-14T12:18:40;0.88;;;0.88;;
6015;SDS011;3036;49.960;8.454;2023-06-14T12:21:08;1.10;;;1.10;;
6015;SDS011;3036;49.960;8.454;2023-06-14T12:23:39;0.82;;;0.82;;
6015;SDS011;3036;49.960;8.454;2023-06-14T12:26:08;0.70;;;0.70;;
6015;SDS011;3036;49.960;8.454;2023-06-14T12:28:35;1.02;;;1.02;;
6015;SDS011;3036;49.960;8.454;2023-06-14T12:31:02;1.00;;;1.00;;
6015;SDS011;3036;49.960;8.454;2023-06-14T12:33:29;1.38;;;0.95;;
6015;SDS011;3036;49.960;8.454;2023-06-14T12:35:56;0.90;;;0.90;;
6015;SDS011;3036;49.960;8.454;2023-06-14T12:38:24;1.00;;;1.00;;
6015;SDS011;3036;49.960;8.454;2023-06-14T12:40:51;1.55;;;1.40;;
6015;SDS011;3036;49.960;8.454;2023-06-14T12:43:19;2.00;;;0.82;;
6015;SDS011;3036;49.960;8.454;2023-06-14T12:45:46;1.85;;;1.20;;
6015;SDS011;3036;49.960;8.454;2023-06-14T12:48:13;1.00;;;1.00;;
6015;SDS011;3036;49.960;8.454;2023-06-14T12:50:40;1.35;;;1.25;;
6015;SDS011;3036;49.960;8.454;2023-06-14T12:53:07;1.10;;;1.10;;
6015;SDS011;3036;49.960;8.454;2023-06-14T12:55:37;1.45;;;1.40;;
6015;SDS011;3036;49.960;8.454;2023-06-14T12:58:05;1.00;;;1.00;;
6015;SDS011;3036;49.960;8.454;2023-06-14T13:00:33;0.93;;;0.93;;
6015;SDS011;3036;49.960;8.454;2023-06-14T13:03:00;1.13;;;1.13;;
6015;SDS011;3036;49.960;8.454;2023-06-14T13:05:27;1.23;;;1.17;;
6015;SDS011;3036;49.960;8.454;2023-06-14T13:07:56;1.20;;;1.20;;
6015;SDS011;3036;49.960;8.454;2023-06-14T13:10:23;1.27;;;1.20;;
6015;SDS011;3036;49.960;8.454;2023-06-14T13:12:50;1.10;;;1.10;;
6015;SDS011;3036;49.960;8.454;2023-06-14T13:15:17;1.10;;;1.10;;
6015;SDS011;3036;49.960;8.454;2023-06-14T13:17:46;1.40;;;1.40;;
6015;SDS011;3036;49.960;8.454;2023-06-14T13:20:14;1.10;;;1.10;;
6015;SDS011;3036;49.960;8.454;2023-06-14T13:22:41;1.15;;;1.15;;
6015;SDS011;3036;49.960;8.454;2023-06-14T13:25:08;1.20;;;1.20;;
6015;SDS011;3036;49.960;8.454;2023-06-14T13:27:36;1.80;;;1.55;;
6015;SDS011;3036;49.960;8.454;2023-06-14T13:30:03;1.10;;;1.10;;
6015;SDS011;3036;49.960;8.454;2023-06-14T13:32:31;1.40;;;1.40;;
6015;SDS011;3036;49.960;8.454;2023-06-14T13:34:59;1.70;;;1.60;;
6015;SDS011;3036;49.960;8.454;2023-06-14T13:37:27;1.10;;;1.10;;
6015;SDS011;3036;49.960;8.454;2023-06-14T13:40:19;1.35;;;1.35;;
6015;SDS011;3036;49.960;8.454;2023-06-14T13:42:45;3.65;;;1.55;;
6015;SDS011;3036;49.960;8.454;2023-06-14T13:45:13;1.50;;;1.50;;
6015;SDS011;3036;49.960;8.454;2023-06-14T13:47:40;1.58;;;1.58;;
6015;SDS011;3036;49.960;8.454;2023-06-14T13:50:09;2.38;;;1.40;;
6015;SDS011;3036;49.960;8.454;2023-06-14T13:52:36;2.42;;;1.40;;
6015;SDS011;3036;49.960;8.454;2023-06-14T13:55:03;1.85;;;1.75;;
6015;SDS011;3036;49.960;8.454;2023-06-14T13:57:36;2.08;;;1.38;;
6015;SDS011;3036;49.960;8.454;2023-06-14T14:00:10;1.15;;;1.15;;
6015;SDS011;3036;49.960;8.454;2023-06-14T14:02:37;3.30;;;1.85;;
6015;SDS011;3036;49.960;8.454;2023-06-14T14:05:06;1.20;;;1.20;;
6015;SDS011;3036;49.960;8.454;2023-06-14T14:07:34;1.30;;;1.30;;
6015;SDS011;3036;49.960;8.454;2023-06-14T14:10:02;1.58;;;1.48;;
6015;SDS011;3036;49.960;8.454;2023-06-14T14:12:29;1.17;;;1.17;;
6015;SDS011;3036;49.960;8.454;2023-06-14T14:14:56;1.30;;;1.30;;
6015;SDS011;3036;49.960;8.454;2023-06-14T14:17:23;1.80;;;1.65;;
6015;SDS011;3036;49.960;8.454;2023-06-14T14:19:51;1.27;;;1.27;;
6015;SDS011;3036;49.960;8.454;2023-06-14T14:22:18;1.13;;;1.13;;
6015;SDS011;3036;49.960;8.454;2023-06-14T14:24:46;1.42;;;1.33;;
6015;SDS011;3036;49.960;8.454;2023-06-14T14:27:14;1.73;;;1.35;;
6015;SDS011;3036;49.960;8.454;2023-06-14T14:29:41;1.45;;;1.45;;
6015;SDS011;3036;49.960;8.454;2023-06-14T14:32:08;1.42;;;1.40;;
6015;SDS011;3036;49.960;8.454;2023-06-14T14:34:38;1.02;;;1.02;;
6015;SDS011;3036;49.960;8.454;2023-06-14T14:37:05;1.05;;;1.05;;
6015;SDS011;3036;49.960;8.454;2023-06-14T14:39:32;3.00;;;1.10;;
6015;SDS011;3036;49.960;8.454;2023-06-14T14:42:01;1.20;;;1.20;;
6015;SDS011;3036;49.960;8.454;2023-06-14T14:44:28;3.30;;;1.40;;
6015;SDS011;3036;49.960;8.454;2023-06-14T14:46:55;1.70;;;1.60;;
6015;SDS011;3036;49.960;8.454;2023-06-14T14:49:22;1.38;;;1.38;;
6015;SDS011;3036;49.960;8.454;2023-06-14T14:51:49;1.60;;;1.50;;
6015;SDS011;3036;49.960;8.454;2023-06-14T14:54:16;1.00;;;1.00;;
6015;SDS011;3036;49.960;8.454;2023-06-14T14:56:43;1.27;;;1.27;;
6015;SDS011;3036;49.960;8.454;2023-06-14T14:59:11;1.20;;;1.20;;
6015;SDS011;3036;49.960;8.454;2023-06-14T15:01:38;1.20;;;1.20;;
6015;SDS011;3036;49.960;8.454;2023-06-14T15:04:05;0.90;;;0.90;;
6015;SDS011;3036;49.960;8.454;2023-06-14T15:06:32;0.90;;;0.90;;
6015;SDS011;3036;49.960;8.454;2023-06-14T15:09:00;2.75;;;1.00;;
6015;SDS011;3036;49.960;8.454;2023-06-14T15:11:27;1.05;;;1.05;;
6015;SDS011;3036;49.960;8.454;2023-06-14T15:13:55;1.25;;;1.25;;
6015;SDS011;3036;49.960;8.454;2023-06-14T15:16:23;1.00;;;1.00;;
6015;SDS011;3036;49.960;8.454;2023-06-14T15:18:50;1.02;;;1.02;;
6015;SDS011;3036;49.960;8.454;2023-06-14T15:21:17;1.33;;;1.33;;
6015;SDS011;3036;49.960;8.454;2023-06-14T15:23:45;0.98;;;0.98;;
6015;SDS011;3036;49.960;8.454;2023-06-14T15:26:12;1.20;;;1.20;;